• Join FlightAware (Why Join?)
  • Login
  • US Flag 
06:28PM EDT


 

Airport Tracker/Info


-or-


 

Live Flight TrackerFlight Track Log ✈ N5167L ✈ 13-Jun-2013 ✈ KJKA - KLLQ

Flight Track Log - Related Links

Times and Time Zones

All times are in EDT time to prevent confusion due to time zone crossing. See the N5167L flight status page for this flight to view local times or setup timezone preferences in your user account.

Time Position Orientation Groundspeed Altitude Reporting Facility
EDT Latitude Longitude Course Direction KTS MPH feet Rate Location/Type
11:07AM 30.3517 -87.7439 324° Northwest 86 99 2,300  Level Houston Center
11:08AM 30.3719 -87.7611 324° Northwest 88 101 2,800 480 Climbing Houston Center
11:09AM 30.3939 -87.7867 315° West 91 105 3,300 420 Climbing Houston Center
11:10AM 30.4119 -87.8086 314° West 92 106 3,700 360 Climbing Houston Center
11:11AM 30.4297 -87.8308 313° West 93 107 4,100 300 Climbing Houston Center
11:12AM 30.4478 -87.8519 315° West 93 107 4,400 180 Climbing Houston Center
11:13AM 30.4697 -87.8772 315° West 101 116 4,500  Climbing Houston Center
11:14AM 30.4969 -87.9083 315° West 109 125 4,400 -60 Descending Houston Center
11:15AM 30.5197 -87.9328 317° Northwest 111 128 4,400  Level Houston Center
11:16AM 30.5417 -87.9586 315° West 112 129 4,400  Level Houston Center
11:17AM 30.5622 -87.9842 313° West 110 127 4,400  Level Houston Center
11:18AM 30.5842 -88.0103 314° West 111 128 4,500  Climbing Houston Center
11:19AM 30.6061 -88.0353 316° Northwest 111 128 4,500 -60 Level Houston Center
11:20AM 30.6319 -88.0656 315° West 110 127 4,400  Descending Houston Center
11:21AM 30.6522 -88.0908 313° West 109 125 4,500  Climbing Houston Center
11:22AM 30.6747 -88.1153 317° Northwest 110 127 4,500  Level Houston Center
11:23AM 30.6967 -88.1411 315° West 112 129 4,500  Level Houston Center
11:24AM 30.7194 -88.1672 315° West 113 130 4,500  Level Houston Center
11:25AM 30.7400 -88.1939 312° West 112 129 4,500 -60 Level Houston Center
11:26AM 30.7664 -88.2261 314° West 113 130 4,400 -60 Descending Houston Center
11:27AM 30.7894 -88.2514 317° Northwest 113 130 4,400  Level Houston Center
11:28AM 30.8119 -88.2761 317° Northwest 113 130 4,400  Level Houston Center
11:29AM 30.8328 -88.3025 313° West 111 128 4,400  Level Houston Center
11:30AM 30.8533 -88.3286 313° West 110 127 4,400  Level Houston Center
11:31AM 30.8761 -88.3536 317° Northwest 110 127 4,400  Level Houston Center
11:33AM 30.9025 -88.3844 315° West 112 129 4,400  Level Houston Center
11:34AM 30.9239 -88.4103 314° West 111 128 4,400  Level Houston Center
11:35AM 30.9447 -88.4367 313° West 110 127 4,500  Climbing Houston Center
11:36AM 30.9675 -88.4617 317° Northwest 111 128 4,500  Level Houston Center
11:37AM 30.9886 -88.4867 315° West 110 127 4,500  Level Houston Center
11:38AM 31.0086 -88.5153 309° West 111 128 4,500  Level Houston Center
11:39AM 31.0300 -88.5422 313° West 113 130 4,500  Level Houston Center
11:40AM 31.0567 -88.5714 317° Northwest 111 128 4,500  Level Houston Center
11:41AM 31.0808 -88.5956 319° Northwest 112 129 4,500  Level Houston Center
11:42AM 31.1039 -88.6186 319° Northwest 111 128 4,500 -60 Level Houston Center
11:43AM 31.1250 -88.6444 314° West 110 127 4,400 -60 Descending Houston Center
11:44AM 31.1475 -88.6686 317° Northwest 110 127 4,400  Level Houston Center
11:45AM 31.1689 -88.6942 314° West 110 127 4,400  Level Houston Center
11:46AM 31.1947 -88.7242 315° West 109 125 4,500  Climbing Houston Center
11:47AM 31.2156 -88.7497 314° West 109 125 4,500  Level Houston Center
11:48AM 31.2364 -88.7758 313° West 109 125 4,500  Level Houston Center
11:49AM 31.2572 -88.8017 313° West 109 125 4,500  Level Houston Center
11:50AM 31.2783 -88.8283 313° West 110 127 4,500  Level Houston Center
11:51AM 31.2989 -88.8533 314° West 109 125 4,500 -60 Level Houston Center
11:52AM 31.3244 -88.8839 314° West 109 125 4,400 -60 Descending Houston Center
11:53AM 31.3458 -88.9089 315° West 109 125 4,400  Level Houston Center
11:54AM 31.3672 -88.9339 315° West 108 124 4,500  Climbing Houston Center
11:55AM 31.3881 -88.9597 313° West 109 125 4,400 -60 Descending Houston Center
11:56AM 31.4086 -88.9869 312° West 110 127 4,400  Level Houston Center
11:57AM 31.4322 -89.0197 310° West 110 127 4,500  Climbing Houston Center
11:58AM 31.4506 -89.0467 309° West 108 124 4,400  Descending Houston Center
11:59AM 31.4717 -89.0722 314° West 109 125 4,500  Climbing Houston Center
12:00PM 31.4939 -89.0958 318° Northwest 108 124 4,400  Descending Houston Center
12:02PM 31.5153 -89.1208 315° West 108 124 4,500  Climbing Houston Center
12:03PM 31.5375 -89.1447 318° Northwest 108 124 4,400  Descending Houston Center
12:04PM 31.5639 -89.1719 319° Northwest 107 123 4,500  Climbing Houston Center
12:05PM 31.5842 -89.1967 314° West 106 122 4,500  Level Houston Center
12:06PM 31.6042 -89.2222 313° West 106 122 4,500  Level Houston Center
12:07PM 31.6283 -89.2444 322° Northwest 107 123 4,500  Level Houston Center
12:08PM 31.6481 -89.2703 312° West 106 122 4,500  Level Houston Center
12:09PM 31.6692 -89.2947 315° West 106 122 4,500  Level Houston Center
12:10PM 31.6936 -89.3256 313° West 106 122 4,500  Level Houston Center
12:11PM 31.7144 -89.3503 315° West 105 121 4,500  Level Houston Center
12:12PM 31.7347 -89.3753 314° West 106 122 4,500  Level Houston Center
12:13PM 31.7556 -89.3997 315° West 106 122 4,500  Level Houston Center
12:14PM 31.7761 -89.4247 314° West 106 122 4,500  Level Houston Center
12:16PM 31.8211 -89.4797 314° West 108 124 4,500  Level Memphis Center
12:17PM 31.8422 -89.5039 316° Northwest 108 124 4,500  Level Memphis Center
12:18PM 31.8611 -89.5283 312° West 108 124 4,600  Climbing Memphis Center
12:19PM 31.8822 -89.5525 316° Northwest 108 124 4,500 -60 Descending Memphis Center
12:20PM 31.9033 -89.5792 313° West 108 124 4,500  Level Memphis Center
12:21PM 31.9264 -89.6011 321° Northwest 108 124 4,500  Level Memphis Center
12:22PM 31.9475 -89.6228 319° Northwest 108 124 4,600  Climbing Memphis Center
12:23PM 31.9664 -89.6472 312° West 108 124 4,500 -60 Descending Memphis Center
12:24PM 31.9894 -89.6789 311° West 108 124 4,500  Level Memphis Center
12:25PM 32.0083 -89.7008 315° West 108 124 4,500  Level Memphis Center
12:26PM 32.0294 -89.7250 316° Northwest 108 124 4,500  Level Memphis Center
12:27PM 32.0483 -89.7544 307° West 108 124 4,600  Climbing Memphis Center
12:28PM 32.0650 -89.7789 309° West 108 124 4,600 180 Level Memphis Center
12:29PM 32.0842 -89.8033 313° West 108 124 5,000 360 Climbing Memphis Center
12:30PM 32.0986 -89.8253 308° West 103 119 5,400 300 Climbing Memphis Center
12:31PM 32.1175 -89.8447 319° Northwest 103 119 5,700 300 Climbing Memphis Center
12:32PM 32.1364 -89.8667 315° West 98 113 6,100  Climbing Memphis Center
12:34PM 32.1672 -89.9045 314° West  Level FlightAware Approximate
12:41PM 32.3139 -90.0857 314° West  Level FlightAware Approximate
12:42PM 32.3348 -90.1116 314° West  Level FlightAware Approximate
12:43PM 32.3557 -90.1376 314° West  Level FlightAware Approximate
12:44PM 32.3767 -90.1635 314° West  Level FlightAware Approximate
12:45PM 32.3976 -90.1895 314° West  Level FlightAware Approximate
12:46PM 32.4185 -90.2155 314° West  Level FlightAware Approximate
12:47PM 32.4394 -90.2414 314° West  Level FlightAware Approximate
12:48PM 32.4603 -90.2674 314° West  Level FlightAware Approximate
12:48PM 32.4653 -90.2661 314° West 111 128 6,500  Level Memphis Center
12:49PM 32.4812 -90.2935 314° West  Level FlightAware Approximate
12:49PM 32.4883 -90.2908 318° Northwest 111 128 6,500  Level Memphis Center
12:50PM 32.5021 -90.3195 314° West  Level FlightAware Approximate
12:50PM 32.5092 -90.3178 313° West 111 128 6,500  Level Memphis Center
12:51PM 32.5230 -90.3455 314° West  Level FlightAware Approximate
12:51PM 32.5300 -90.3425 315° West 106 122 6,500  Level Memphis Center
12:52PM 32.5439 -90.3716 314° West  Level FlightAware Approximate
12:52PM 32.5508 -90.3697 312° West 106 122 6,500  Level Memphis Center
12:53PM 32.5717 -90.3919 318° Northwest 106 122 6,500  Level Memphis Center
12:54PM 32.5883 -90.4189 306° West 106 122 6,500  Level Memphis Center
12:55PM 32.6114 -90.4436 318° Northwest 106 122 6,500  Level Memphis Center
12:56PM 32.6322 -90.4683 315° West 106 122 6,500  Level Memphis Center
12:57PM 32.6553 -90.4931 318° Northwest 106 122 6,500  Level Memphis Center
12:58PM 32.6739 -90.5178 312° West 106 122 6,500 -60 Level Memphis Center
12:59PM 32.6947 -90.5450 312° West 106 122 6,400  Descending Memphis Center
01:00PM 32.7114 -90.5719 306° West 106 122 6,500  Climbing Memphis Center
01:01PM 32.7303 -90.5992 310° West 106 122 6,500  Level Memphis Center
01:02PM 32.7511 -90.6242 315° West 106 122 6,500  Level Memphis Center
01:03PM 32.7719 -90.6514 312° West 106 122 6,500  Level Memphis Center
01:04PM 32.7925 -90.6761 315° West 106 122 6,500  Level Memphis Center
01:05PM 32.8156 -90.7033 315° West 106 122 6,500  Level Memphis Center
01:06PM 32.8342 -90.7281 312° West 106 122 6,500  Level Memphis Center
01:07PM 32.8550 -90.7531 315° West 106 122 6,500  Level Memphis Center
01:08PM 32.8800 -90.7778 320° Northwest 106 122 6,500  Level Memphis Center
01:09PM 32.8986 -90.8050 309° West 106 122 6,500  Level Memphis Center
01:10PM 32.9194 -90.8350 310° West 106 122 6,500  Level Memphis Center
01:11PM 32.9403 -90.8622 312° West 106 122 6,500  Level Memphis Center
01:12PM 32.9611 -90.8872 315° West 106 122 6,500  Level Memphis Center
01:13PM 32.9839 -90.9144 315° West 111 128 6,500  Level Memphis Center
01:14PM 33.0006 -90.9394 308° West 111 128 6,500  Level Memphis Center
01:15PM 33.0233 -90.9642 318° Northwest 111 128 6,600  Climbing Memphis Center
01:16PM 33.0439 -90.9942 309° West 111 128 6,500 -60 Descending Memphis Center
01:17PM 33.0669 -91.0217 315° West 105 121 6,500  Level Memphis Center
01:18PM 33.0856 -91.0467 312° West 105 121 6,500  Level Memphis Center
01:19PM 33.1061 -91.0714 315° West 105 121 6,500  Level Memphis Center
01:20PM 33.1269 -91.0989 312° West 110 127 6,500  Level Memphis Center
01:21PM 33.1478 -91.1214 318° Northwest 110 127 6,500 -60 Level Memphis Center
01:22PM 33.1706 -91.1464 317° Northwest 110 127 6,400 -60 Descending Memphis Center
01:23PM 33.1911 -91.1739 312° West 110 127 6,400 -60 Level Memphis Center
01:24PM 33.2119 -91.2014 312° West 110 127 6,300 -120 Descending Memphis Center
01:25PM 33.2325 -91.2289 312° West 110 127 6,200 -120 Descending Memphis Center